Aeroporto :







RITROVATECI SU...

 
LOGIN :

Iscrizione | Disclaimer

   EN    FR    IT 

 









Sommario :    VFR   VFR Marginale   IFR   IFR Intensivo   IFR Molto Intensivo
Visibilità : 
Base nubi : 
>= 8 km
>= 3000ft
5 / 8 km
1000 / 3000 ft
1500m / 5 km
500 / 1000 ft
800 / 1500m
200 / 500 ft
< 800m
< 200 ft
Simboli :   Temporali  Nebbia  Neve Forte  Precipitazioni Forti  Vento > 20 kt






- Altitudine del aeroporto : 110 ft
- Codice IATA : YFB


CYFB - Iqaluit

ULTIMO METAR :
  • 100600Z VRB02KT 30SM BKN170 BKN250 06/05 A2991 RMK AC5CI1 SLP133

METARs OBSOLETI :
  • 100500Z VRB02KT 30SM BKN150 BKN190 07/05 A2990 RMK AC5CI1 SLP129
  • 100400Z 31004KT 30SM FEW060 BKN170 07/05 A2989 RMK SC2AC5 SLP126

TAF TAF CYFB
Valido dal 10 a 06 ore il 11 a 06 ore UTC


100538Z 1006/1106 31005KT P6SM SCT060 BKN150
TEMPO 1006/1021 BKN060
FM102100 14008KT P6SM -SHRA BKN060
FM110400 17008KT 4SM -SHRA BR BKN020 RMK NXT FCST BY 101200Z
FIR CZUL / America del Nord



MetMap, La meteo Aeronautica in un colpo d'occhio ! - Copyright ORBIFLY Dicembre 2007 - Disclaimer

ORBIFLY MET'MAP TEAM :

Programmazione e sviluppo : Alexandra Zaïnal
Concezione : Baudouin d'Aumeries
Aiuto per la programmazione : Marc-Olivier Méhu
Supporto tecnico e logistico : Manuel Goepfert
Aiuto per la traduzione : Arnaldo La Scala

Contatto : metmap@orbifly.com




FONTI E CREDITI :

   NOAA